Time,TemperatureF,DewpointF,PressureIn,WindDirection,WindDirectionDegrees,WindSpeedMPH,WindSpeedGustMPH,Humidity,HourlyPrecipIn,Conditions,Clouds,dailyrainin,SoftwareType,DateUTC
2013-06-07 00:02:00,51.3,22.5,30.00,East,93,5.0,10.1,32,0.00,,,-99.99,FreeWX 2.04,2013-06-07 06:02:00,
2013-06-07 00:12:00,50.7,23.4,30.00,East,89,4.0,8.3,34,0.00,,,-99.99,FreeWX 2.04,2013-06-07 06:12:00,
2013-06-07 00:22:00,49.6,23.7,30.00,East,85,4.0,8.3,36,0.00,,,-99.99,FreeWX 2.04,2013-06-07 06:22:00,
2013-06-07 00:33:00,49.8,24.6,30.00,East,79,4.0,7.8,37,0.00,,,-99.99,FreeWX 2.04,2013-06-07 06:33:00,
2013-06-07 00:43:00,50.9,22.8,30.00,East,98,5.0,9.6,33,0.00,,,-99.99,FreeWX 2.04,2013-06-07 06:43:00,
2013-06-07 00:53:00,51.3,21.7,30.00,ESE,102,5.0,10.1,31,0.00,,,-99.99,FreeWX 2.04,2013-06-07 06:53:00,
2013-06-07 01:03:00,51.1,21.6,30.00,East,98,4.0,8.7,31,0.00,,,-99.99,FreeWX 2.04,2013-06-07 07:03:00,
2013-06-07 01:13:00,49.5,23.7,30.00,East,85,3.0,6.9,36,0.00,,,-99.99,FreeWX 2.04,2013-06-07 07:13:00,
2013-06-07 01:23:00,48.9,23.7,30.00,East,81,3.0,5.8,37,0.00,,,-99.99,FreeWX 2.04,2013-06-07 07:23:00,
2013-06-07 01:33:00,48.7,23.7,30.00,East,79,3.0,7.8,37,0.00,,,-99.99,FreeWX 2.04,2013-06-07 07:33:00,
2013-06-07 01:43:00,48.4,23.4,30.00,ENE,77,3.0,6.7,37,0.00,,,-99.99,FreeWX 2.04,2013-06-07 07:43:00,
2013-06-07 01:53:00,48.7,23.7,30.00,ENE,78,4.0,8.3,37,0.00,,,-99.99,FreeWX 2.04,2013-06-07 07:53:00,
2013-06-07 02:03:00,50.2,22.3,30.00,East,84,4.0,11.0,33,0.00,,,-99.99,FreeWX 2.04,2013-06-07 08:03:00,
2013-06-07 02:13:00,49.3,22.1,30.00,East,84,4.0,8.7,34,0.00,,,-99.99,FreeWX 2.04,2013-06-07 08:13:00,
2013-06-07 02:23:00,48.4,23.4,30.00,East,81,4.0,6.9,37,0.00,,,-99.99,FreeWX 2.04,2013-06-07 08:23:00,
2013-06-07 02:33:00,48.0,23.0,30.00,East,79,3.0,5.4,37,0.00,,,-99.99,FreeWX 2.04,2013-06-07 08:33:00,
2013-06-07 02:43:00,48.2,23.2,30.00,East,86,2.0,6.9,37,0.00,,,-99.99,FreeWX 2.04,2013-06-07 08:43:00,
2013-06-07 02:53:00,47.8,22.8,29.97,East,97,3.0,6.9,37,0.00,,,-99.99,FreeWX 2.04,2013-06-07 08:53:00,
2013-06-07 03:03:00,47.5,22.5,29.97,North,-999,0.0,3.6,37,0.00,,,-99.99,FreeWX 2.04,2013-06-07 09:03:00,
2013-06-07 03:13:00,47.7,22.6,29.97,East,83,3.0,7.8,37,0.00,,,-99.99,FreeWX 2.04,2013-06-07 09:13:00,
2013-06-07 03:23:00,47.7,22.6,29.97,East,83,3.0,7.8,37,0.00,,,-99.99,FreeWX 2.04,2013-06-07 09:23:00,
2013-06-07 03:33:00,47.5,22.5,29.97,ENE,78,2.0,6.3,37,0.00,,,-99.99,FreeWX 2.04,2013-06-07 09:33:00,
2013-06-07 03:43:00,47.3,22.3,29.97,East,83,1.0,4.9,37,0.00,,,-99.99,FreeWX 2.04,2013-06-07 09:43:00,
2013-06-07 03:53:00,47.1,22.8,29.97,North,-999,0.0,5.8,38,0.00,,,-99.99,FreeWX 2.04,2013-06-07 09:53:00,
2013-06-07 04:03:00,46.8,22.5,29.97,East,84,2.0,7.4,38,0.00,,,-99.99,FreeWX 2.04,2013-06-07 10:03:00,
2013-06-07 04:13:00,46.6,22.3,29.97,East,85,1.0,5.8,38,0.00,,,-99.99,FreeWX 2.04,2013-06-07 10:13:00,
2013-06-07 04:23:00,47.3,23.0,29.97,East,89,4.0,7.8,38,0.00,,,-99.99,FreeWX 2.04,2013-06-07 10:23:00,
2013-06-07 04:33:00,47.7,22.6,29.97,East,95,4.0,9.6,37,0.00,,,-99.99,FreeWX 2.04,2013-06-07 10:33:00,
2013-06-07 04:43:00,50.2,20.7,29.97,ESE,106,6.0,10.1,31,0.00,,,-99.99,FreeWX 2.04,2013-06-07 10:43:00,
2013-06-07 04:53:00,51.3,19.2,29.97,ESE,116,7.0,13.0,28,0.00,,,-99.99,FreeWX 2.04,2013-06-07 10:53:00,
2013-06-07 05:03:00,51.4,18.5,29.97,ESE,122,7.0,12.1,27,0.00,,,-99.99,FreeWX 2.04,2013-06-07 11:03:00,
2013-06-07 05:13:00,51.1,19.0,29.97,ESE,117,6.0,11.0,28,0.00,,,-99.99,FreeWX 2.04,2013-06-07 11:13:00,
2013-06-07 05:23:00,50.7,18.9,29.97,ESE,114,5.0,8.7,28,0.00,,,-99.99,FreeWX 2.04,2013-06-07 11:23:00,
2013-06-07 05:33:00,51.1,19.0,29.97,ESE,120,6.0,12.1,28,0.00,,,-99.99,FreeWX 2.04,2013-06-07 11:33:00,
2013-06-07 05:43:00,50.9,19.0,29.97,ESE,117,6.0,12.5,28,0.00,,,-99.99,FreeWX 2.04,2013-06-07 11:43:00,
2013-06-07 05:53:00,51.1,19.0,29.97,ESE,113,6.0,11.2,28,0.00,,,-99.99,FreeWX 2.04,2013-06-07 11:53:00,
2013-06-07 06:03:00,50.9,19.0,29.97,ESE,115,6.0,9.6,28,0.00,,,-99.99,FreeWX 2.04,2013-06-07 12:03:00,
2013-06-07 06:13:00,50.9,19.0,29.97,ESE,115,6.0,10.5,28,0.00,,,-99.99,FreeWX 2.04,2013-06-07 12:13:00,
2013-06-07 06:23:00,51.4,19.4,29.97,ESE,115,6.0,11.0,28,0.00,,,-99.99,FreeWX 2.04,2013-06-07 12:23:00,
2013-06-07 06:33:00,52.0,19.0,29.97,ESE,121,7.0,12.1,27,0.00,,,-99.99,FreeWX 2.04,2013-06-07 12:33:00,
2013-06-07 06:43:00,52.7,20.5,29.97,SE,125,6.0,11.2,28,0.00,,,-99.99,FreeWX 2.04,2013-06-07 12:43:00,
2013-06-07 06:53:00,52.9,20.7,29.97,ESE,108,5.0,10.5,28,0.00,,,-99.99,FreeWX 2.04,2013-06-07 12:53:00,
2013-06-07 07:03:00,53.8,20.7,29.97,ESE,106,5.0,9.2,27,0.00,,,-99.99,FreeWX 2.04,2013-06-07 13:03:00,
2013-06-07 07:13:00,53.8,21.4,29.97,East,98,5.0,8.7,28,0.00,,,-99.99,FreeWX 2.04,2013-06-07 13:13:00,
2013-06-07 07:23:00,52.9,23.0,29.97,East,94,3.0,8.3,31,0.00,,,-99.99,FreeWX 2.04,2013-06-07 13:23:00,
2013-06-07 07:33:00,55.2,24.3,29.97,East,100,3.0,7.8,30,0.00,,,-99.99,FreeWX 2.04,2013-06-07 13:33:00,
2013-06-07 07:43:00,56.8,22.3,29.97,ESE,107,5.0,8.7,26,0.00,,,-99.99,FreeWX 2.04,2013-06-07 13:43:00,
2013-06-07 07:53:00,57.4,22.8,29.97,ESE,112,5.0,9.2,26,0.00,,,-99.99,FreeWX 2.04,2013-06-07 13:53:00,
2013-06-07 08:03:00,59.0,23.2,29.97,ESE,112,3.0,6.9,25,0.00,,,-99.99,FreeWX 2.04,2013-06-07 14:03:00,
2013-06-07 08:13:00,61.0,23.9,29.97,SE,145,1.0,6.9,24,0.00,,,-99.99,FreeWX 2.04,2013-06-07 14:13:00,
2013-06-07 08:23:00,62.6,25.3,29.97,SE,145,2.0,6.3,24,0.00,,,-99.99,FreeWX 2.04,2013-06-07 14:23:00,
2013-06-07 08:34:00,64.0,22.1,29.97,SSE,160,2.0,4.9,20,0.00,,,-99.99,FreeWX 2.04,2013-06-07 14:34:00,
2013-06-07 08:44:00,66.4,20.3,29.97,North,-999,0.0,3.1,17,0.00,,,-99.99,FreeWX 2.04,2013-06-07 14:44:00,
2013-06-07 08:54:00,67.8,21.4,29.97,North,-999,0.0,2.7,17,0.00,,,-99.99,FreeWX 2.04,2013-06-07 14:54:00,
2013-06-07 09:04:00,67.8,21.4,29.97,North,-999,0.0,4.0,17,0.00,,,-99.99,FreeWX 2.04,2013-06-07 15:04:00,
2013-06-07 09:14:00,68.0,18.7,29.97,WNW,300,1.0,5.4,15,0.00,,,-99.99,FreeWX 2.04,2013-06-07 15:14:00,
2013-06-07 09:24:00,67.8,18.5,29.97,WNW,282,3.0,5.8,15,0.00,,,-99.99,FreeWX 2.04,2013-06-07 15:24:00,
2013-06-07 09:34:00,68.5,21.9,29.97,NW,308,3.0,6.3,17,0.00,,,-99.99,FreeWX 2.04,2013-06-07 15:34:00,
2013-06-07 09:44:00,68.2,18.9,29.97,WNW,303,3.0,6.3,15,0.00,,,-99.99,FreeWX 2.04,2013-06-07 15:44:00,
2013-06-07 09:54:00,69.4,18.1,29.97,WNW,298,3.0,6.7,14,0.00,,,-99.99,FreeWX 2.04,2013-06-07 15:54:00,
2013-06-07 10:04:00,69.4,18.1,29.97,West,262,4.0,7.8,14,0.00,,,-99.99,FreeWX 2.04,2013-06-07 16:04:00,
2013-06-07 10:14:00,69.6,18.3,29.97,West,280,3.0,7.4,14,0.00,,,-99.99,FreeWX 2.04,2013-06-07 16:14:00,
2013-06-07 10:24:00,70.3,18.9,29.94,WNW,291,2.0,7.4,14,0.00,,,-99.99,FreeWX 2.04,2013-06-07 16:24:00,
2013-06-07 10:34:00,70.7,13.6,29.94,West,262,4.0,9.6,11,0.00,,,-99.99,FreeWX 2.04,2013-06-07 16:34:00,
2013-06-07 10:44:00,71.1,13.8,29.94,WSW,252,3.0,7.8,11,0.00,,,-99.99,FreeWX 2.04,2013-06-07 16:44:00,
2013-06-07 10:54:00,71.6,14.4,29.94,SW,233,3.0,6.7,11,0.00,,,-99.99,FreeWX 2.04,2013-06-07 16:54:00,
2013-06-07 11:04:00,71.2,14.0,29.94,WSW,251,4.0,8.3,11,0.00,,,-99.99,FreeWX 2.04,2013-06-07 17:04:00,
2013-06-07 11:14:00,72.0,14.5,29.94,West,275,3.0,10.1,11,0.00,,,-99.99,FreeWX 2.04,2013-06-07 17:14:00,
2013-06-07 11:24:00,72.7,15.1,29.94,SW,228,3.0,7.4,11,0.00,,,-99.99,FreeWX 2.04,2013-06-07 17:24:00,
2013-06-07 11:34:00,72.7,15.1,29.94,West,262,4.0,8.7,11,0.00,,,-99.99,FreeWX 2.04,2013-06-07 17:34:00,
2013-06-07 11:44:00,72.1,14.7,29.94,South,188,3.0,7.8,11,0.00,,,-99.99,FreeWX 2.04,2013-06-07 17:44:00,
2013-06-07 11:54:00,72.9,15.3,29.94,West,259,4.0,8.7,11,0.00,,,-99.99,FreeWX 2.04,2013-06-07 17:54:00,
2013-06-07 12:04:00,73.0,15.4,29.94,West,273,4.0,10.1,11,0.00,,,-99.99,FreeWX 2.04,2013-06-07 18:04:00,
2013-06-07 12:14:00,72.9,15.3,29.94,West,274,7.0,13.4,11,0.00,,,-99.99,FreeWX 2.04,2013-06-07 18:14:00,
2013-06-07 12:24:00,72.7,15.1,29.94,West,267,6.0,12.5,11,0.00,,,-99.99,FreeWX 2.04,2013-06-07 18:24:00,
2013-06-07 12:34:00,72.9,15.3,29.94,West,261,5.0,10.5,11,0.00,,,-99.99,FreeWX 2.04,2013-06-07 18:34:00,
2013-06-07 12:44:00,73.8,16.0,29.94,WSW,245,5.0,11.0,11,0.00,,,-99.99,FreeWX 2.04,2013-06-07 18:44:00,
2013-06-07 12:54:00,73.6,15.8,29.94,WSW,244,5.0,11.0,11,0.00,,,-99.99,FreeWX 2.04,2013-06-07 18:54:00,
2013-06-07 13:04:00,74.7,-99.9,29.94,WSW,244,5.0,11.0,-999,0.00,,,-99.99,FreeWX 2.04,2013-06-07 19:04:00,
2013-06-07 13:15:00,74.5,-99.9,29.94,WSW,251,5.0,11.2,-999,0.00,,,-99.99,FreeWX 2.04,2013-06-07 19:15:00,
2013-06-07 13:25:00,73.2,15.6,29.94,West,265,6.0,13.0,11,0.00,,,-99.99,FreeWX 2.04,2013-06-07 19:25:00,
2013-06-07 13:35:00,74.1,16.3,29.94,WSW,248,6.0,12.5,11,0.00,,,-99.99,FreeWX 2.04,2013-06-07 19:35:00,
2013-06-07 13:45:00,74.3,-99.9,29.94,West,260,6.0,13.9,-999,0.00,,,-99.99,FreeWX 2.04,2013-06-07 19:45:00,
2013-06-07 13:55:00,72.5,15.1,29.94,West,259,6.0,12.5,11,0.00,,,-99.99,FreeWX 2.04,2013-06-07 19:55:00,
2013-06-07 14:06:00,74.5,-99.9,29.91,West,260,5.0,11.6,-999,0.00,,,-99.99,FreeWX 2.04,2013-06-07 20:06:00,
2013-06-07 14:16:00,74.5,-99.9,29.91,WSW,244,5.0,10.5,-999,0.00,,,-99.99,FreeWX 2.04,2013-06-07 20:16:00,
2013-06-07 14:26:00,73.0,15.4,29.91,West,277,6.0,14.3,11,0.00,,,-99.99,FreeWX 2.04,2013-06-07 20:26:00,
2013-06-07 14:36:00,74.8,-99.9,29.91,WSW,253,6.0,11.6,-999,0.00,,,-99.99,FreeWX 2.04,2013-06-07 20:36:00,
2013-06-07 14:46:00,75.0,-99.9,29.91,WSW,248,6.0,12.1,-999,0.00,,,-99.99,FreeWX 2.04,2013-06-07 20:46:00,
2013-06-07 14:56:00,75.6,-99.9,29.91,WSW,254,4.0,11.6,-999,0.00,,,-99.99,FreeWX 2.04,2013-06-07 20:56:00,
2013-06-07 15:06:00,73.6,15.8,29.91,WSW,240,5.0,11.0,11,0.00,,,-99.99,FreeWX 2.04,2013-06-07 21:06:00,
2013-06-07 15:16:00,75.9,-99.9,29.91,WSW,237,5.0,10.5,-999,0.00,,,-99.99,FreeWX 2.04,2013-06-07 21:16:00,
2013-06-07 15:26:00,77.4,-99.9,29.91,WSW,245,4.0,10.1,-999,0.00,,,-99.99,FreeWX 2.04,2013-06-07 21:26:00,
2013-06-07 15:36:00,75.4,-99.9,29.91,WSW,257,5.0,11.0,-999,0.00,,,-99.99,FreeWX 2.04,2013-06-07 21:36:00,
2013-06-07 15:46:00,74.7,-99.9,29.91,WSW,246,5.0,13.4,-999,0.00,,,-99.99,FreeWX 2.04,2013-06-07 21:46:00,
2013-06-07 15:56:00,76.6,-99.9,29.91,West,271,5.0,12.1,-999,0.00,,,-99.99,FreeWX 2.04,2013-06-07 21:56:00,
2013-06-07 16:06:00,75.9,-99.9,29.91,SW,236,4.0,9.2,-999,0.00,,,-99.99,FreeWX 2.04,2013-06-07 22:06:00,
2013-06-07 16:27:00,72.3,14.9,29.91,West,275,5.0,10.1,11,0.00,,,-99.99,FreeWX 2.04,2013-06-07 22:27:00,
2013-06-07 16:37:00,74.7,-99.9,29.91,WSW,248,4.0,9.6,-999,0.00,,,-99.99,FreeWX 2.04,2013-06-07 22:37:00,
2013-06-07 16:47:00,76.5,-99.9,29.91,SW,225,5.0,10.1,-999,0.00,,,-99.99,FreeWX 2.04,2013-06-07 22:47:00,
2013-06-07 16:57:00,76.6,-99.9,29.88,SW,227,4.0,10.1,-999,0.00,,,-99.99,FreeWX 2.04,2013-06-07 22:57:00,
2013-06-07 17:07:00,76.1,-99.9,29.88,SW,227,4.0,9.6,-999,0.00,,,-99.99,FreeWX 2.04,2013-06-07 23:07:00,
2013-06-07 17:17:00,73.9,16.2,29.88,WSW,243,1.0,7.4,11,0.00,,,-99.99,FreeWX 2.04,2013-06-07 23:17:00,
2013-06-07 17:27:00,75.6,-99.9,29.88,WSW,241,3.0,9.6,-999,0.00,,,-99.99,FreeWX 2.04,2013-06-07 23:27:00,
2013-06-07 17:37:00,75.6,-99.9,29.88,West,278,5.0,11.6,-999,0.00,,,-99.99,FreeWX 2.04,2013-06-07 23:37:00,
2013-06-07 17:47:00,75.9,-99.9,29.88,West,259,6.0,12.1,-999,0.00,,,-99.99,FreeWX 2.04,2013-06-07 23:47:00,
2013-06-07 17:57:00,76.3,-99.9,29.88,West,267,5.0,11.6,-999,0.00,,,-99.99,FreeWX 2.04,2013-06-07 23:57:00,
2013-06-07 18:07:00,76.6,-99.9,29.85,WSW,245,5.0,11.2,-999,0.00,,,-99.99,FreeWX 2.04,2013-06-08 00:07:00,
2013-06-07 18:17:00,76.5,-99.9,29.85,SSW,210,3.0,9.6,-999,0.00,,,-99.99,FreeWX 2.04,2013-06-08 00:17:00,
2013-06-07 18:27:00,75.9,-99.9,29.85,SSW,209,4.0,9.2,-999,0.00,,,-99.99,FreeWX 2.04,2013-06-08 00:27:00,
2013-06-07 18:37:00,76.3,-99.9,29.85,SW,230,5.0,12.1,-999,0.00,,,-99.99,FreeWX 2.04,2013-06-08 00:37:00,
2013-06-07 18:47:00,74.5,-99.9,29.85,SW,219,5.0,11.6,-999,0.00,,,-99.99,FreeWX 2.04,2013-06-08 00:47:00,
2013-06-07 18:57:00,75.6,-99.9,29.85,SW,218,2.0,6.9,-999,0.00,,,-99.99,FreeWX 2.04,2013-06-08 00:57:00,
2013-06-07 19:07:00,74.8,-99.9,29.85,SSW,210,3.0,9.2,-999,0.00,,,-99.99,FreeWX 2.04,2013-06-08 01:07:00,
2013-06-07 19:28:00,72.9,15.3,29.85,SSW,203,2.0,9.2,11,0.00,,,-99.99,FreeWX 2.04,2013-06-08 01:28:00,
2013-06-07 19:38:00,73.2,15.6,29.85,SSW,204,3.0,8.3,11,0.00,,,-99.99,FreeWX 2.04,2013-06-08 01:38:00,
2013-06-07 19:48:00,72.9,15.3,29.85,SSW,212,3.0,7.8,11,0.00,,,-99.99,FreeWX 2.04,2013-06-08 01:48:00,
2013-06-07 19:58:00,72.5,15.1,29.85,SW,220,3.0,9.2,11,0.00,,,-99.99,FreeWX 2.04,2013-06-08 01:58:00,
2013-06-07 20:08:00,71.1,13.8,29.85,SW,223,3.0,9.2,11,0.00,,,-99.99,FreeWX 2.04,2013-06-08 02:08:00,
2013-06-07 20:18:00,68.4,13.8,29.85,SSW,194,3.0,8.3,12,0.00,,,-99.99,FreeWX 2.04,2013-06-08 02:18:00,
2013-06-07 20:28:00,68.4,13.8,29.85,SSW,203,1.0,6.7,12,0.00,,,-99.99,FreeWX 2.04,2013-06-08 02:28:00,
2013-06-07 20:38:00,68.5,14.0,29.82,South,191,1.0,8.3,12,0.00,,,-99.99,FreeWX 2.04,2013-06-08 02:38:00,
2013-06-07 20:48:00,68.4,13.8,29.82,South,189,2.0,7.4,12,0.00,,,-99.99,FreeWX 2.04,2013-06-08 02:48:00,
2013-06-07 20:58:00,68.5,14.0,29.82,South,180,3.0,9.6,12,0.00,,,-99.99,FreeWX 2.04,2013-06-08 02:58:00,
2013-06-07 21:09:00,67.3,12.9,29.82,South,184,1.0,9.6,12,0.00,,,-99.99,FreeWX 2.04,2013-06-08 03:09:00,
2013-06-07 21:19:00,67.5,13.1,29.82,SSW,194,3.0,9.6,12,0.00,,,-99.99,FreeWX 2.04,2013-06-08 03:19:00,
2013-06-07 21:29:00,66.6,12.4,29.82,South,179,2.0,5.8,12,0.00,,,-99.99,FreeWX 2.04,2013-06-08 03:29:00,
2013-06-07 21:39:00,67.3,12.9,29.82,SSW,195,2.0,10.5,12,0.00,,,-99.99,FreeWX 2.04,2013-06-08 03:39:00,
2013-06-07 21:49:00,67.5,13.1,29.82,SSW,210,4.0,7.8,12,0.00,,,-99.99,FreeWX 2.04,2013-06-08 03:49:00,
2013-06-07 21:59:00,67.5,13.1,29.82,SSW,206,4.0,12.1,12,0.00,,,-99.99,FreeWX 2.04,2013-06-08 03:59:00,
2013-06-07 22:09:00,67.1,12.7,29.82,South,191,4.0,8.7,12,0.00,,,-99.99,FreeWX 2.04,2013-06-08 04:09:00,
2013-06-07 22:19:00,67.6,13.3,29.82,SSW,202,5.0,10.1,12,0.00,,,-99.99,FreeWX 2.04,2013-06-08 04:19:00,
2013-06-07 22:29:00,67.3,12.9,29.82,SSW,204,4.0,9.6,12,0.00,,,-99.99,FreeWX 2.04,2013-06-08 04:29:00,
2013-06-07 22:39:00,66.6,-99.9,29.82,South,176,4.0,11.0,-999,0.00,,,-99.99,FreeWX 2.04,2013-06-08 04:39:00,
2013-06-07 22:49:00,66.6,-99.9,29.82,South,188,4.0,14.8,-999,0.00,,,-99.99,FreeWX 2.04,2013-06-08 04:49:00,
2013-06-07 22:59:00,66.2,-99.9,29.82,SSW,195,4.0,10.1,-999,0.00,,,-99.99,FreeWX 2.04,2013-06-08 04:59:00,
2013-06-07 23:09:00,66.2,-99.9,29.82,SSW,192,5.0,9.2,-999,0.00,,,-99.99,FreeWX 2.04,2013-06-08 05:09:00,
2013-06-07 23:19:00,66.0,-99.9,29.82,SSW,200,4.0,8.7,-999,0.00,,,-99.99,FreeWX 2.04,2013-06-08 05:19:00,
2013-06-07 23:29:00,65.3,11.5,29.82,SSW,198,4.0,9.2,12,0.00,,,-99.99,FreeWX 2.04,2013-06-08 05:29:00,
2013-06-07 23:39:00,65.3,13.3,29.82,South,185,3.0,7.4,13,0.00,,,-99.99,FreeWX 2.04,2013-06-08 05:39:00,
2013-06-07 23:49:00,64.8,-99.9,29.82,South,186,3.0,11.6,-999,0.00,,,-99.99,FreeWX 2.04,2013-06-08 05:49:00,
2013-06-07 23:59:00,63.9,12.0,29.82,South,187,2.0,8.3,13,0.00,,,-99.99,FreeWX 2.04,2013-06-08 05:59:00,